Time;durP1;ratioP1;P1;durP2;ratioP2;P2;SDS_P1;SDS_P2;PMS_P1;PMS_P2;Temp;Humidity;BMP_temperature;BMP_pressure;BME280_temperature;BME280_humidity;BME280_pressure;Samples;Min_cycle;Max_cycle;Signal;HPM_P1;HPM_P2
2021/05/06 00:34:38;;;;;;;3.00;1.63;;;;;;;9.81;54.89;95242.72;5044814;28;20225;-83
2021/05/06 00:37:05;;;;;;;1.83;1.30;;;;;;;9.76;55.09;95239.09;5042261;28;20190;-80
2021/05/06 00:39:34;;;;;;;2.70;1.30;;;;;;;9.76;54.81;95233.97;5037316;28;20225;-81
2021/05/06 00:42:17;;;;;;;1.27;1.17;;;;;;;9.81;54.99;95250.44;5036189;28;20209;-82
2021/05/06 01:01:38;;;;;;;2.97;1.40;;;;;;;9.91;54.98;95235.53;5037424;28;20234;-82
2021/05/06 01:07:04;;;;;;;3.60;1.50;;;;;;;9.73;55.08;95226.59;5036583;28;20199;-83
2021/05/06 01:09:34;;;;;;;2.53;1.30;;;;;;;9.75;55.38;95232.38;5054132;28;20241;-83
2021/05/06 01:12:01;;;;;;;1.70;1.30;;;;;;;9.73;55.54;95242.03;5040805;28;20226;-82
2021/05/06 01:14:27;;;;;;;1.83;1.30;;;;;;;9.59;55.70;95236.72;5034597;28;20309;-81
2021/05/06 01:16:53;;;;;;;1.37;1.27;;;;;;;9.61;56.07;95241.69;5037468;28;20276;-81
2021/05/06 01:19:19;;;;;;;3.40;1.63;;;;;;;9.61;56.05;95244.25;5053853;28;20293;-82
2021/05/06 01:21:46;;;;;;;2.30;1.60;;;;;;;9.55;56.42;95237.25;5038181;28;20609;-82
2021/05/06 01:24:12;;;;;;;2.17;1.47;;;;;;;9.50;56.67;95236.97;5042806;28;20213;-83
2021/05/06 01:26:41;;;;;;;3.03;1.63;;;;;;;9.58;56.54;95239.47;5052100;28;20233;-83
2021/05/06 01:29:12;;;;;;;2.90;1.60;;;;;;;9.47;56.76;95232.19;5034482;28;20229;-83
2021/05/06 01:31:42;;;;;;;1.80;1.37;;;;;;;9.42;56.73;95225.03;5046700;28;20207;-82
2021/05/06 01:34:11;;;;;;;2.43;1.20;;;;;;;9.28;56.91;95221.47;5047485;28;20352;-83
2021/05/06 01:36:40;;;;;;;2.30;1.40;;;;;;;9.22;56.84;95234.25;5035982;28;20260;-83
2021/05/06 01:42:04;;;;;;;3.07;1.40;;;;;;;9.42;56.59;95226.81;5129322;27;728189;-83
2021/05/06 01:44:55;;;;;;;2.47;1.53;;;;;;;9.49;56.27;95219.97;5118584;28;20512;-83
2021/05/06 01:47:25;;;;;;;3.23;1.60;;;;;;;9.46;56.52;95223.69;5110851;28;20702;-83
2021/05/06 01:50:07;;;;;;;3.50;1.20;;;;;;;9.46;56.28;95215.19;5110968;28;20195;-85
2021/05/06 01:58:29;;;;;;;2.50;1.13;;;;;;;9.69;56.19;95208.16;5110887;28;20245;-83
2021/05/06 02:00:59;;;;;;;3.10;2.00;;;;;;;9.65;55.80;95201.78;5111244;28;20273;-80
2021/05/06 02:03:25;;;;;;;7.40;5.60;;;;;;;9.66;56.02;95193.09;5110085;28;20243;-83
2021/05/06 02:05:51;;;;;;;2.13;1.30;;;;;;;9.70;55.67;95195.13;5110529;28;20302;-82
2021/05/06 02:08:18;;;;;;;3.60;1.53;;;;;;;9.70;55.97;95192.56;5111168;28;20208;-81
2021/05/06 02:10:44;;;;;;;1.60;1.30;;;;;;;9.59;55.78;95193.03;5090304;28;20223;-83
2021/05/06 02:13:13;;;;;;;2.30;1.20;;;;;;;9.57;55.96;95194.19;5070441;28;20197;-82
2021/05/06 02:15:43;;;;;;;1.97;1.73;;;;;;;9.41;56.62;95190.06;5071813;28;20197;-81
2021/05/06 02:18:09;;;;;;;2.10;1.40;;;;;;;9.40;56.39;95193.59;5071484;28;20197;-80
2021/05/06 02:20:35;;;;;;;1.90;1.40;;;;;;;9.29;57.01;95174.28;5070769;28;20252;-82
2021/05/06 02:23:03;;;;;;;2.37;1.67;;;;;;;9.34;56.48;95176.31;5069215;28;20207;-82
2021/05/06 02:25:30;;;;;;;1.33;1.23;;;;;;;9.28;56.09;95177.00;5069243;28;20204;-81
2021/05/06 02:27:56;;;;;;;1.07;0.97;;;;;;;9.25;55.59;95170.47;5069919;28;20699;-83
2021/05/06 02:30:23;;;;;;;3.43;1.70;;;;;;;9.34;55.34;95177.09;5071157;28;20201;-81
2021/05/06 02:32:49;;;;;;;3.20;1.40;;;;;;;9.41;55.18;95176.41;5062405;28;20213;-83
2021/05/06 02:35:16;;;;;;;1.30;1.20;;;;;;;9.42;55.00;95172.88;5066941;28;20216;-83
2021/05/06 02:37:42;;;;;;;3.13;1.40;;;;;;;9.38;55.00;95163.91;5071899;28;20208;-81
2021/05/06 02:40:10;;;;;;;2.23;1.40;;;;;;;9.41;54.73;95173.84;5072953;28;20763;-83
2021/05/06 02:42:36;;;;;;;2.30;1.40;;;;;;;9.32;54.67;95173.91;5073138;28;20185;-84
2021/05/06 02:45:03;;;;;;;1.70;1.10;;;;;;;9.39;54.02;95168.06;5073690;28;20228;-82
2021/05/06 02:47:29;;;;;;;3.43;1.50;;;;;;;9.39;54.43;95160.38;5071874;28;20200;-81
2021/05/06 02:49:56;;;;;;;1.80;1.20;;;;;;;9.34;54.12;95164.25;5070944;28;20212;-82
2021/05/06 02:52:28;;;;;;;3.37;1.37;;;;;;;9.38;54.05;95163.91;5062610;28;20216;-82
2021/05/06 02:55:00;;;;;;;2.27;1.30;;;;;;;9.41;54.49;95166.94;5057941;28;20231;-83
2021/05/06 02:57:35;;;;;;;1.83;1.10;;;;;;;9.39;54.86;95168.06;5057451;28;20197;-82
2021/05/06 03:02:50;;;;;;;2.77;1.40;;;;;;;9.33;55.23;95165.25;5057196;28;20707;-81
2021/05/06 03:05:18;;;;;;;2.53;1.47;;;;;;;9.41;55.41;95163.56;5057385;28;20221;-83
2021/05/06 03:07:48;;;;;;;2.60;1.50;;;;;;;9.45;55.99;95159.63;5056901;28;20611;-83
2021/05/06 03:10:23;;;;;;;2.40;1.30;;;;;;;9.45;56.55;95163.00;5056532;28;20240;-83
2021/05/06 03:13:12;;;;;;;2.20;1.30;;;;;;;9.45;56.96;95163.00;5056014;28;20208;-82
2021/05/06 03:21:28;;;;;;;2.20;1.33;;;;;;;9.48;56.85;95160.06;5056946;28;20262;-84
2021/05/06 03:23:55;;;;;;;3.83;1.47;;;;;;;9.46;57.00;95158.66;5057182;28;20228;-82
2021/05/06 03:26:22;;;;;;;2.67;1.70;;;;;;;9.37;57.49;95163.13;5057339;28;20578;-82
2021/05/06 03:28:51;;;;;;;2.07;1.40;;;;;;;9.36;56.97;95158.94;5057035;28;20204;-82
2021/05/06 03:42:14;;;;;;;2.63;1.40;;;;;;;9.53;58.31;95180.09;5056599;28;20219;-83
2021/05/06 03:45:00;;;;;;;1.30;1.20;;;;;;;9.47;58.77;95180.81;5055858;28;20214;-82
2021/05/06 04:15:24;;;;;;;2.67;1.90;;;;;;;9.39;61.39;95174.00;5055666;28;20228;-82
2021/05/06 04:18:02;;;;;;;1.53;1.40;;;;;;;9.48;61.70;95172.91;5055916;28;20228;-83
2021/05/06 04:26:07;;;;;;;3.40;1.50;;;;;;;9.65;62.55;95186.34;5054130;28;20201;-83
2021/05/06 04:37:00;;;;;;;3.27;1.57;;;;;;;9.72;62.06;95171.03;5053789;28;20277;-82
2021/05/06 04:39:44;;;;;;;4.53;1.70;;;;;;;9.71;63.73;95172.78;5053762;28;20277;-82
2021/05/06 04:53:38;;;;;;;12.80;9.63;;;;;;;9.97;61.57;95172.28;5001878;28;20195;-83
2021/05/06 04:56:13;;;;;;;5.37;3.37;;;;;;;9.92;62.66;95159.97;5053079;28;20266;-82
2021/05/06 04:59:01;;;;;;;3.23;1.87;;;;;;;9.95;62.38;95166.53;5052676;28;20199;-83
2021/05/06 05:04:17;;;;;;;10.43;7.93;;;;;;;10.00;61.98;95177.06;5052117;28;20236;-83
2021/05/06 05:06:53;;;;;;;4.03;3.30;;;;;;;10.09;61.78;95172.59;5044590;28;20281;-84
2021/05/06 05:09:42;;;;;;;3.33;2.00;;;;;;;10.12;61.99;95173.03;5047491;28;20201;-84
2021/05/06 05:12:17;;;;;;;4.20;2.20;;;;;;;10.12;62.43;95169.66;5033127;28;20484;-85
2021/05/06 05:15:04;;;;;;;3.67;1.67;;;;;;;10.10;62.97;95177.56;5031966;28;20217;-83
2021/05/06 05:17:45;;;;;;;2.00;1.60;;;;;;;10.06;63.47;95176.31;5032927;28;20618;-83
2021/05/06 05:20:16;;;;;;;3.10;1.80;;;;;;;10.04;64.51;95171.34;5033127;28;20248;-83
2021/05/06 05:25:32;;;;;;;2.40;1.70;;;;;;;10.16;63.37;95181.19;5032821;28;20244;-83
2021/05/06 05:28:00;;;;;;;3.03;1.70;;;;;;;10.09;63.13;95177.72;5032687;28;20198;-84
2021/05/06 05:30:28;;;;;;;2.90;1.90;;;;;;;10.13;63.25;95166.09;5032136;28;20217;-84
2021/05/06 05:32:54;;;;;;;4.47;1.77;;;;;;;10.13;63.17;95163.53;5031906;28;20274;-85
2021/05/06 05:35:31;;;;;;;2.90;1.97;;;;;;;10.19;63.06;95165.41;5032905;28;20218;-83
2021/05/06 05:38:05;;;;;;;2.47;1.73;;;;;;;10.29;62.61;95165.88;5032281;28;20225;-83
2021/05/06 05:40:35;;;;;;;5.07;2.30;;;;;;;10.42;62.71;95180.63;5032303;28;20404;-84
2021/05/06 05:43:08;;;;;;;2.63;2.00;;;;;;;10.49;62.32;95181.50;5032739;28;20644;-83
2021/05/06 05:56:29;;;;;;;2.50;1.60;;;;;;;10.25;58.21;95167.22;5033102;28;20205;-83
2021/05/06 05:58:56;;;;;;;2.47;1.50;;;;;;;10.37;57.64;95166.56;5033047;28;20296;-82
2021/05/06 06:01:24;;;;;;;2.80;1.80;;;;;;;10.39;56.83;95161.22;5032423;28;20225;-83
2021/05/06 06:03:50;;;;;;;4.67;1.83;;;;;;;10.37;56.92;95156.28;5031770;28;20226;-84
2021/05/06 06:06:16;;;;;;;3.87;1.70;;;;;;;10.35;55.29;95154.88;5032340;28;20206;-84
2021/05/06 06:08:42;;;;;;;2.13;1.60;;;;;;;10.38;55.58;95155.28;5032257;28;20260;-83
2021/05/06 06:11:08;;;;;;;2.73;1.60;;;;;;;10.36;54.74;95148.72;5045411;28;20229;-84
2021/05/06 06:13:34;;;;;;;2.83;1.50;;;;;;;10.24;53.65;95157.91;5052470;28;20213;-83
2021/05/06 06:16:02;;;;;;;4.77;1.70;;;;;;;10.29;54.08;95161.53;5052260;28;20212;-83
2021/05/06 06:18:35;;;;;;;3.73;1.50;;;;;;;10.29;53.86;95166.69;5052232;28;20632;-83
2021/05/06 06:21:06;;;;;;;4.53;1.90;;;;;;;10.37;53.98;95166.56;5053756;28;20229;-84
2021/05/06 06:23:32;;;;;;;5.03;1.80;;;;;;;10.32;53.86;95158.59;5053394;28;20650;-84
2021/05/06 06:25:59;;;;;;;2.63;1.57;;;;;;;10.39;53.38;95154.28;5051422;28;20206;-83
2021/05/06 06:28:26;;;;;;;2.90;1.73;;;;;;;10.40;52.64;95155.06;5057814;28;20204;-84
2021/05/06 06:30:53;;;;;;;4.67;1.73;;;;;;;10.45;52.45;95152.75;5057940;28;20255;-83
2021/05/06 06:33:20;;;;;;;3.87;1.63;;;;;;;10.51;52.82;95154.59;5056687;28;20213;-83
2021/05/06 06:35:47;;;;;;;3.13;1.87;;;;;;;10.34;52.05;95138.63;5056563;28;20201;-83
2021/05/06 06:38:13;;;;;;;3.47;1.43;;;;;;;10.44;51.75;95138.28;5056023;28;20296;-84
2021/05/06 06:40:39;;;;;;;4.70;1.50;;;;;;;10.45;51.06;95139.09;5055335;28;20245;-84
2021/05/06 06:43:05;;;;;;;5.07;1.63;;;;;;;10.55;51.13;95140.38;5055134;28;20198;-85
2021/05/06 06:45:31;;;;;;;3.60;1.70;;;;;;;10.63;51.46;95126.53;5053578;28;20271;-83
2021/05/06 06:47:57;;;;;;;3.23;1.73;;;;;;;10.65;50.15;95132.31;5055335;28;20201;-84
2021/05/06 06:50:23;;;;;;;3.47;1.63;;;;;;;10.55;49.56;95139.56;5056938;28;20720;-84
2021/05/06 06:52:50;;;;;;;3.33;1.53;;;;;;;10.46;49.15;95120.09;5055516;28;20255;-83
2021/05/06 06:55:16;;;;;;;2.47;1.40;;;;;;;10.49;49.55;95115.38;5055264;28;20700;-83
2021/05/06 06:57:42;;;;;;;3.90;1.50;;;;;;;10.55;49.60;95113.84;5054220;28;20767;-83
2021/05/06 07:00:09;;;;;;;2.83;1.70;;;;;;;10.72;49.14;95115.13;5054144;28;20210;-85
2021/05/06 07:02:35;;;;;;;4.00;1.90;;;;;;;10.88;49.09;95111.47;5054250;28;20221;-83
2021/05/06 07:05:01;;;;;;;2.30;1.60;;;;;;;11.02;48.66;95128.56;5054584;28;20225;-83
2021/05/06 07:07:28;;;;;;;4.07;1.87;;;;;;;10.98;47.61;95117.06;5053102;28;20194;-83
2021/05/06 07:09:54;;;;;;;2.47;1.70;;;;;;;11.15;48.20;95117.56;5054823;28;20254;-84
2021/05/06 07:12:20;;;;;;;3.00;2.13;;;;;;;11.18;47.37;95106.84;5054079;28;20193;-84
2021/05/06 07:14:48;;;;;;;3.33;1.90;;;;;;;11.31;46.91;95089.69;5054201;28;20300;-83
2021/05/06 07:17:18;;;;;;;3.27;1.50;;;;;;;11.56;46.71;95089.94;5053947;28;20205;-84
2021/05/06 07:19:44;;;;;;;3.17;2.23;;;;;;;11.72;46.21;95088.81;5054403;28;20229;-83
2021/05/06 07:22:10;;;;;;;2.77;1.47;;;;;;;11.77;46.14;95081.28;5052603;28;20669;-83
2021/05/06 07:24:40;;;;;;;3.17;1.50;;;;;;;11.82;44.82;95080.69;5054433;28;20573;-84
2021/05/06 07:27:09;;;;;;;3.87;1.97;;;;;;;11.97;44.64;95076.16;5052756;28;20709;-84
2021/05/06 07:29:35;;;;;;;3.10;1.90;;;;;;;12.06;44.35;95067.25;5054342;28;20235;-84
2021/05/06 07:32:01;;;;;;;2.50;1.50;;;;;;;12.18;43.92;95057.91;5053659;28;20271;-84
2021/05/06 07:34:30;;;;;;;3.43;1.60;;;;;;;12.12;43.62;95057.91;5054770;28;20298;-84
2021/05/06 07:36:56;;;;;;;3.03;1.70;;;;;;;12.12;43.17;95052.75;5035108;28;20206;-84
2021/05/06 07:39:22;;;;;;;4.33;1.80;;;;;;;12.14;43.37;95054.13;5048838;28;20198;-84
2021/05/06 07:41:49;;;;;;;5.67;1.90;;;;;;;12.31;43.55;95057.91;5053821;28;20287;-83
2021/05/06 07:44:18;;;;;;;2.53;1.40;;;;;;;12.64;43.90;95046.72;5054746;28;20773;-84
2021/05/06 07:46:44;;;;;;;3.93;1.50;;;;;;;12.76;42.72;95045.09;5053390;28;20205;-84
2021/05/06 07:49:10;;;;;;;2.40;1.37;;;;;;;12.87;43.03;95035.94;5053652;28;20204;-84
2021/05/06 07:51:39;;;;;;;4.47;1.40;;;;;;;13.02;43.06;95044.25;5053259;28;20285;-84
2021/05/06 07:54:10;;;;;;;1.50;1.40;;;;;;;12.84;41.18;95036.34;5053829;28;20217;-84
2021/05/06 07:56:36;;;;;;;6.60;1.73;;;;;;;12.94;41.27;95041.88;5053805;28;20258;-84
2021/05/06 07:59:04;;;;;;;3.60;1.77;;;;;;;13.01;41.49;95040.84;5053851;28;20205;-84
2021/05/06 08:01:31;;;;;;;4.73;1.70;;;;;;;13.19;40.93;95034.25;5053642;28;20229;-84
2021/05/06 08:03:57;;;;;;;4.20;1.60;;;;;;;13.23;40.84;95036.22;5053582;28;20217;-84
2021/05/06 08:06:23;;;;;;;2.27;1.50;;;;;;;13.12;41.02;95031.66;5053629;28;20205;-84
2021/05/06 08:08:52;;;;;;;4.00;1.60;;;;;;;13.16;41.41;95027.69;5052604;28;20247;-84
2021/05/06 08:11:18;;;;;;;3.83;1.80;;;;;;;13.02;41.61;95020.97;5038776;28;20238;-84
2021/05/06 08:13:47;;;;;;;2.27;1.60;;;;;;;13.00;41.73;95020.38;5033650;28;20221;-84
2021/05/06 08:16:13;;;;;;;4.37;1.83;;;;;;;12.99;42.16;95022.19;5033073;28;20293;-83
2021/05/06 08:18:39;;;;;;;3.87;1.60;;;;;;;13.06;41.93;95024.75;5033795;28;20564;-81
2021/05/06 08:21:08;;;;;;;6.07;1.60;;;;;;;13.08;41.52;95013.19;5033027;28;20236;-83
2021/05/06 08:23:37;;;;;;;4.10;2.13;;;;;;;13.16;41.42;95013.97;5033907;28;20309;-81
2021/05/06 08:26:03;;;;;;;4.70;1.70;;;;;;;13.00;41.76;95016.00;5032625;28;20264;-81
2021/05/06 08:28:29;;;;;;;4.10;1.80;;;;;;;13.20;42.02;95020.34;5034508;28;20236;-79
2021/05/06 08:30:55;;;;;;;2.90;1.70;;;;;;;13.22;41.91;95020.91;5033437;28;20696;-83
2021/05/06 08:33:22;;;;;;;2.47;1.57;;;;;;;13.58;41.34;95003.00;5033020;28;20771;-81
2021/05/06 08:35:49;;;;;;;3.80;1.70;;;;;;;13.78;41.77;94995.91;5031803;28;20209;-84
2021/05/06 08:38:16;;;;;;;3.13;1.40;;;;;;;13.82;40.82;94994.50;5033295;28;20198;-83
2021/05/06 08:40:43;;;;;;;3.07;1.40;;;;;;;13.70;40.67;94995.34;5021898;28;20215;-83
2021/05/06 08:43:11;;;;;;;2.23;1.60;;;;;;;13.63;40.42;94992.03;5015151;28;20226;-82
2021/05/06 08:45:43;;;;;;;4.63;1.73;;;;;;;13.81;40.69;94987.72;5032794;28;20213;-82
2021/05/06 08:48:12;;;;;;;2.37;1.60;;;;;;;13.83;41.10;94993.50;5032266;28;20198;-82
2021/05/06 08:50:40;;;;;;;3.30;1.87;;;;;;;13.92;40.94;94981.06;5032996;28;20762;-82
2021/05/06 08:53:07;;;;;;;3.20;1.87;;;;;;;14.20;40.86;94979.84;5032478;28;20222;-83
2021/05/06 08:55:34;;;;;;;2.90;1.90;;;;;;;14.34;40.02;94979.50;5031041;28;20276;-82
2021/05/06 08:58:00;;;;;;;2.43;1.50;;;;;;;14.55;40.44;94985.28;5031894;28;20657;-82
2021/05/06 09:00:26;;;;;;;4.00;1.80;;;;;;;14.48;40.50;94975.00;5032721;28;20206;-83
2021/05/06 09:02:52;;;;;;;4.00;1.73;;;;;;;14.47;41.00;94974.19;5031959;28;20553;-84
2021/05/06 09:05:22;;;;;;;3.17;1.47;;;;;;;14.39;41.57;94976.28;5032275;28;20228;-82
2021/05/06 09:07:49;;;;;;;2.37;1.60;;;;;;;14.35;41.03;94968.13;5031653;28;20854;-82
2021/05/06 09:10:35;;;;;;;5.13;1.60;;;;;;;14.23;41.46;94982.00;5032071;28;20232;-84
2021/05/06 09:13:02;;;;;;;3.70;1.70;;;;;;;14.14;40.90;94979.69;5012540;28;20697;-81
2021/05/06 09:15:28;;;;;;;1.80;1.50;;;;;;;14.02;41.90;94983.97;5024393;28;20489;-84
2021/05/06 09:17:54;;;;;;;4.23;1.80;;;;;;;13.90;41.66;94971.91;5032001;28;20669;-84
2021/05/06 09:20:22;;;;;;;5.10;1.63;;;;;;;13.69;42.18;94991.97;5032254;28;20206;-81
2021/05/06 09:22:50;;;;;;;3.90;1.50;;;;;;;13.60;40.98;94982.91;5031986;28;20275;-83
2021/05/06 09:25:28;;;;;;;6.10;2.20;;;;;;;13.62;41.56;94982.69;5031041;28;20222;-81
2021/05/06 09:28:06;;;;;;;2.77;1.53;;;;;;;13.64;41.98;94978.91;5031447;28;20831;-83
2021/05/06 09:30:33;;;;;;;3.07;1.77;;;;;;;13.66;41.22;94974.28;5032163;28;20202;-84
2021/05/06 09:33:00;;;;;;;3.70;1.60;;;;;;;13.63;40.84;94972.16;5032499;28;20202;-81
2021/05/06 09:35:27;;;;;;;4.17;1.63;;;;;;;13.61;41.32;94973.34;5031082;28;20264;-83
2021/05/06 09:37:53;;;;;;;4.07;1.70;;;;;;;13.64;41.49;94967.75;5031308;28;20198;-83
2021/05/06 09:40:19;;;;;;;4.47;2.10;;;;;;;13.70;41.82;94964.31;5025735;28;20580;-83
2021/05/06 09:42:48;;;;;;;3.47;1.50;;;;;;;13.75;42.04;94969.66;5031817;28;20198;-83
2021/05/06 09:45:21;;;;;;;2.30;1.50;;;;;;;13.69;41.26;94966.09;5031517;28;20232;-82
2021/05/06 09:48:07;;;;;;;3.27;1.60;;;;;;;13.66;41.00;94973.53;5030853;28;20209;-83
2021/05/06 09:50:33;;;;;;;3.07;1.87;;;;;;;13.50;40.51;94959.28;5032110;28;20190;-83
2021/05/06 09:53:00;;;;;;;4.67;1.70;;;;;;;13.51;41.52;94963.47;5030643;28;20202;-83
2021/05/06 09:55:33;;;;;;;4.47;2.07;;;;;;;13.52;41.30;94970.22;5031574;28;20229;-82
2021/05/06 09:58:11;;;;;;;4.03;1.60;;;;;;;13.63;42.04;94963.59;5030606;28;20760;-80
2021/05/06 10:00:37;;;;;;;2.20;1.30;;;;;;;13.65;41.80;94967.56;5031376;28;20229;-81
2021/05/06 10:03:10;;;;;;;2.53;1.40;;;;;;;13.51;40.97;94957.50;5033520;28;20198;-83
2021/05/06 10:05:36;;;;;;;3.13;1.47;;;;;;;13.45;41.25;94956.56;5034947;28;20217;-82
2021/05/06 10:08:04;;;;;;;2.53;1.53;;;;;;;13.48;41.39;94961.28;5034952;28;20217;-82
2021/05/06 10:10:30;;;;;;;2.53;1.50;;;;;;;13.55;41.47;94961.25;5035322;28;20229;-81
2021/05/06 10:12:56;;;;;;;3.13;1.53;;;;;;;13.51;41.84;94965.25;5035808;28;20217;-81
2021/05/06 10:15:22;;;;;;;3.50;1.43;;;;;;;13.47;42.01;94964.88;5027921;28;20289;-83
2021/05/06 10:17:49;;;;;;;4.23;1.80;;;;;;;13.31;43.03;94961.00;5034209;28;20202;-83
2021/05/06 10:20:15;;;;;;;5.03;1.50;;;;;;;13.36;42.23;94960.38;5034470;28;20226;-83
2021/05/06 10:22:44;;;;;;;3.43;1.60;;;;;;;13.34;43.46;94967.53;5034256;28;20214;-83
2021/05/06 10:25:11;;;;;;;3.80;1.50;;;;;;;13.35;43.18;94962.16;5035185;28;20233;-82
2021/05/06 10:27:40;;;;;;;1.57;1.33;;;;;;;13.25;42.97;94976.56;5034254;28;20202;-84
2021/05/06 10:30:08;;;;;;;3.27;1.60;;;;;;;13.14;43.18;94975.38;5034093;28;20194;-82
2021/05/06 10:32:35;;;;;;;3.13;1.53;;;;;;;13.18;44.30;94965.47;5034033;28;20198;-82
2021/05/06 10:35:04;;;;;;;2.23;1.47;;;;;;;13.04;43.89;94978.44;5034417;28;20229;-83
2021/05/06 10:37:31;;;;;;;2.80;1.60;;;;;;;13.07;43.68;94987.56;5034006;28;20206;-83
2021/05/06 10:39:57;;;;;;;2.57;1.30;;;;;;;13.06;44.01;94984.19;5034349;28;20236;-84
2021/05/06 10:42:45;;;;;;;2.20;1.40;;;;;;;13.03;45.99;95002.69;5017983;28;20214;-84
2021/05/06 10:45:34;;;;;;;1.80;1.30;;;;;;;12.89;47.20;94995.19;5029848;28;20218;-83
2021/05/06 10:48:02;;;;;;;4.73;1.77;;;;;;;12.78;48.69;95002.56;5034294;28;20206;-84
2021/05/06 10:50:39;;;;;;;3.17;1.40;;;;;;;12.74;49.01;95001.38;5033246;28;20351;-84
2021/05/06 10:53:07;;;;;;;2.10;1.27;;;;;;;12.64;49.79;94995.06;5033910;28;20229;-84
2021/05/06 10:55:48;;;;;;;1.97;1.50;;;;;;;12.56;50.58;95001.25;5033563;28;20226;-85
2021/05/06 10:58:39;;;;;;;2.37;1.57;;;;;;;12.46;51.02;95016.38;5034169;28;20219;-83
2021/05/06 11:01:22;;;;;;;3.73;1.50;;;;;;;12.29;51.98;95016.00;5034938;28;20733;-84
2021/05/06 11:04:08;;;;;;;3.43;1.60;;;;;;;12.28;53.53;95001.53;5034084;28;20304;-84
2021/05/06 11:06:36;;;;;;;2.03;1.40;;;;;;;12.17;54.06;95007.28;5034386;28;20229;-84
2021/05/06 11:09:03;;;;;;;3.13;1.73;;;;;;;12.07;54.14;95009.47;5033024;28;20202;-84
2021/05/06 11:11:29;;;;;;;4.63;1.87;;;;;;;12.07;55.31;95004.31;5033779;28;20795;-84
2021/05/06 11:14:07;;;;;;;2.93;1.40;;;;;;;12.07;56.81;95012.06;5033543;28;20228;-84
2021/05/06 11:16:34;;;;;;;2.57;1.60;;;;;;;11.96;57.41;95012.63;5033701;28;20190;-83
2021/05/06 11:19:01;;;;;;;3.27;1.50;;;;;;;11.86;58.10;95010.47;5033523;28;20198;-83
2021/05/06 11:21:40;;;;;;;2.63;1.57;;;;;;;11.79;58.97;95022.56;5033313;28;20218;-84
2021/05/06 11:24:16;;;;;;;1.80;1.20;;;;;;;11.62;59.50;95011.81;5034034;28;20214;-84
2021/05/06 11:27:12;;;;;;;1.77;1.30;;;;;;;11.58;60.44;95002.06;5033118;28;20701;-83
2021/05/06 11:29:40;;;;;;;1.90;1.30;;;;;;;11.63;60.81;95010.81;5033352;28;20202;-83
2021/05/06 11:32:07;;;;;;;1.73;1.20;;;;;;;11.58;60.25;95007.22;5032889;28;20202;-84
2021/05/06 11:34:39;;;;;;;2.47;1.20;;;;;;;11.75;60.28;94995.53;5033229;28;20217;-83
2021/05/06 11:37:10;;;;;;;1.63;1.30;;;;;;;11.77;60.58;94998.75;5033111;28;20256;-83
2021/05/06 11:39:46;;;;;;;1.40;1.30;;;;;;;11.69;61.52;94996.34;5032008;28;20559;-83
2021/05/06 11:42:12;;;;;;;2.63;1.40;;;;;;;11.85;61.18;94996.00;5029192;28;20256;-83
2021/05/06 11:44:38;;;;;;;1.73;1.33;;;;;;;11.94;62.51;94987.03;5032952;28;20214;-84
2021/05/06 11:47:04;;;;;;;2.03;1.30;;;;;;;12.02;60.48;94986.84;5033394;28;20272;-84
2021/05/06 11:49:30;;;;;;;2.83;1.50;;;;;;;12.05;61.95;94986.47;5033101;28;20199;-83
2021/05/06 11:51:56;;;;;;;3.10;1.40;;;;;;;12.09;61.51;94979.91;5032837;28;20280;-84
2021/05/06 11:54:23;;;;;;;2.20;1.30;;;;;;;12.13;61.69;94976.91;5032918;28;20638;-84
2021/05/06 11:56:53;;;;;;;2.40;1.40;;;;;;;12.18;63.18;94972.72;5032559;28;20248;-84
2021/05/06 11:59:20;;;;;;;2.43;1.50;;;;;;;12.19;62.19;94971.75;5032299;28;20285;-84
2021/05/06 12:01:47;;;;;;;1.20;1.10;;;;;;;12.22;61.02;94968.75;5033755;28;20218;-84
2021/05/06 12:04:24;;;;;;;2.07;1.50;;;;;;;12.20;62.72;94957.84;5033382;28;20284;-84
2021/05/06 12:06:51;;;;;;;2.70;1.60;;;;;;;12.26;60.96;94958.84;5031554;28;20198;-84
2021/05/06 12:09:25;;;;;;;3.37;1.50;;;;;;;12.34;61.78;94961.97;5033297;28;20198;-84
2021/05/06 12:11:51;;;;;;;2.00;1.40;;;;;;;12.38;61.18;94957.22;5031866;28;20697;-84
2021/05/06 12:14:28;;;;;;;1.73;1.20;;;;;;;12.27;60.96;94948.31;5033084;28;20226;-83
2021/05/06 12:16:54;;;;;;;2.90;1.60;;;;;;;12.21;61.57;94941.38;5031713;28;20198;-83
2021/05/06 12:19:20;;;;;;;2.23;1.53;;;;;;;12.20;59.53;94941.56;5032872;28;20198;-84
2021/05/06 12:21:48;;;;;;;2.20;1.67;;;;;;;12.17;59.70;94929.06;5032132;28;20252;-84
2021/05/06 12:24:27;;;;;;;2.63;1.40;;;;;;;12.25;60.97;94928.84;5032138;28;20218;-84
2021/05/06 12:26:53;;;;;;;2.50;1.57;;;;;;;12.28;61.64;94931.03;5032467;28;20209;-84
2021/05/06 12:29:20;;;;;;;2.97;1.77;;;;;;;12.21;61.02;94919.94;5033663;28;20198;-84
2021/05/06 12:31:48;;;;;;;2.87;2.13;;;;;;;12.17;60.52;94904.06;5033909;28;20280;-84
2021/05/06 12:34:16;;;;;;;3.90;2.40;;;;;;;12.25;60.39;94901.25;5034422;28;20218;-84
2021/05/06 12:36:49;;;;;;;4.60;2.10;;;;;;;12.35;60.77;94895.66;5033205;28;20202;-84
2021/05/06 12:39:16;;;;;;;3.53;2.17;;;;;;;12.49;61.73;94892.03;5034080;28;20202;-84
2021/05/06 12:41:49;;;;;;;3.07;2.07;;;;;;;12.46;61.89;94892.44;5020266;28;20218;-84
2021/05/06 12:44:32;;;;;;;2.17;1.63;;;;;;;12.52;61.52;94890.81;5023320;28;20655;-84
2021/05/06 12:47:18;;;;;;;4.23;1.57;;;;;;;12.55;61.13;94880.09;5032241;28;20201;-83
2021/05/06 12:49:45;;;;;;;2.00;1.40;;;;;;;12.51;61.13;94871.94;5032416;28;20847;-84
2021/05/06 12:52:31;;;;;;;4.33;1.80;;;;;;;12.55;62.35;94864.59;5033296;28;20946;-84
2021/05/06 12:54:59;;;;;;;2.43;1.43;;;;;;;12.56;61.10;94864.38;5031744;28;20300;-83
2021/05/06 12:57:25;;;;;;;3.67;1.87;;;;;;;12.48;62.67;94845.78;5028962;28;20194;-83
2021/05/06 12:59:51;;;;;;;3.07;1.50;;;;;;;12.39;61.69;94851.16;5029960;28;20209;-82
2021/05/06 13:02:21;;;;;;;2.03;1.70;;;;;;;12.47;61.75;94847.56;5031233;28;20878;-84
2021/05/06 13:04:52;;;;;;;4.33;1.50;;;;;;;12.49;63.10;94847.34;5029058;28;20237;-84
2021/05/06 13:07:21;;;;;;;3.37;1.83;;;;;;;12.52;62.39;94847.72;5025904;28;20202;-84
2021/05/06 13:09:51;;;;;;;3.93;1.90;;;;;;;12.41;65.43;94841.44;5027093;28;20300;-83
2021/05/06 13:12:23;;;;;;;2.60;1.57;;;;;;;12.35;62.44;94826.75;5030395;28;20198;-84
2021/05/06 13:14:53;;;;;;;2.60;1.90;;;;;;;12.39;63.46;94821.97;5031150;28;20221;-84
2021/05/06 13:17:31;;;;;;;4.63;1.60;;;;;;;12.38;65.72;94820.38;5031349;28;20611;-85
2021/05/06 13:20:21;;;;;;;3.10;1.57;;;;;;;12.47;65.27;94816.59;5030514;28;20249;-85
2021/05/06 13:23:05;;;;;;;1.87;1.60;;;;;;;12.51;62.93;94817.72;5031763;28;20313;-84
2021/05/06 13:25:46;;;;;;;3.13;1.70;;;;;;;12.51;62.41;94816.97;5032065;28;20248;-84
2021/05/06 13:28:20;;;;;;;4.37;1.70;;;;;;;12.44;62.90;94817.78;5032527;28;20202;-85
2021/05/06 13:30:51;;;;;;;3.20;1.50;;;;;;;12.41;63.90;94807.88;5032208;28;20198;-84
2021/05/06 13:33:21;;;;;;;4.40;1.93;;;;;;;12.42;64.63;94804.28;5031519;28;20190;-84
2021/05/06 13:36:06;;;;;;;2.70;1.60;;;;;;;12.41;65.79;94797.53;5032282;28;20631;-84
2021/05/06 13:38:52;;;;;;;4.40;1.60;;;;;;;12.39;64.85;94784.03;5031400;28;20202;-84
2021/05/06 13:41:22;;;;;;;3.10;1.73;;;;;;;12.40;64.38;94777.88;5016679;28;20911;-84
2021/05/06 13:43:51;;;;;;;1.70;1.50;;;;;;;12.40;63.69;94775.31;5020211;28;20210;-84
2021/05/06 13:46:20;;;;;;;2.87;1.60;;;;;;;12.39;62.96;94767.75;5032819;28;20587;-83
2021/05/06 13:48:46;;;;;;;2.07;1.60;;;;;;;12.24;64.03;94765.47;5031599;28;20256;-84
2021/05/06 13:51:15;;;;;;;3.07;1.60;;;;;;;12.30;63.78;94763.84;5031990;28;20190;-84
2021/05/06 13:53:42;;;;;;;3.87;1.70;;;;;;;12.36;63.66;94755.25;5031798;28;20226;-84
2021/05/06 13:56:10;;;;;;;3.03;1.60;;;;;;;12.37;63.18;94749.09;5033106;28;20190;-84
2021/05/06 13:58:42;;;;;;;2.10;1.47;;;;;;;12.19;63.81;94734.31;5032015;28;20204;-84
2021/05/06 14:01:13;;;;;;;2.97;1.87;;;;;;;11.91;67.49;94719.19;5032894;28;20217;-84
2021/05/06 14:03:41;;;;;;;2.60;2.00;;;;;;;11.75;68.32;94706.72;5032703;28;20260;-84
2021/05/06 14:06:10;;;;;;;2.97;1.80;;;;;;;11.63;69.05;94693.69;5033218;28;20195;-84
2021/05/06 14:08:40;;;;;;;2.80;2.00;;;;;;;11.72;68.87;94678.78;5033417;28;20248;-84
2021/05/06 14:11:08;;;;;;;5.03;2.43;;;;;;;11.85;69.02;94678.75;5034037;28;20221;-84
2021/05/06 14:13:34;;;;;;;3.23;2.40;;;;;;;11.86;71.25;94685.47;5033627;28;20194;-83
2021/05/06 14:16:01;;;;;;;3.07;1.97;;;;;;;11.85;70.88;94688.28;5033115;28;20554;-84
2021/05/06 14:18:27;;;;;;;3.20;1.93;;;;;;;11.67;71.39;94687.13;5033275;28;20199;-84